createdAt,value
2022-12-08T00:02:00.323Z,1.13
2022-12-08T00:04:28.925Z,1.09
2022-12-08T00:07:16.167Z,1.06
2022-12-08T00:09:44.447Z,1.05
2022-12-08T00:12:17.645Z,1.05
2022-12-08T00:14:47.603Z,1.04
2022-12-08T00:17:17.109Z,1.03
2022-12-08T00:19:46.339Z,0.99
2022-12-08T00:22:15.269Z,0.93
2022-12-08T00:24:46.501Z,0.86
2022-12-08T00:27:16.551Z,0.85
2022-12-08T00:29:45.604Z,0.84
2022-12-08T00:32:14.705Z,0.84
2022-12-08T00:34:43.224Z,0.85
2022-12-08T00:37:11.675Z,0.83
2022-12-08T00:39:39.973Z,0.81
2022-12-08T00:42:14.939Z,0.82
2022-12-08T00:44:45.821Z,0.84
2022-12-08T00:47:14.789Z,0.87
2022-12-08T00:49:43.108Z,0.90
2022-12-08T00:52:12.780Z,0.90
2022-12-08T00:54:41.244Z,0.92
2022-12-08T00:57:09.975Z,0.94
2022-12-08T00:59:39.003Z,0.95
2022-12-08T01:02:07.946Z,0.95
2022-12-08T01:04:36.265Z,0.95
2022-12-08T01:07:04.661Z,0.93
2022-12-08T01:09:33.002Z,0.94
2022-12-08T01:12:01.499Z,0.93
2022-12-08T01:14:29.990Z,0.92
2022-12-08T01:16:58.404Z,0.91
2022-12-08T01:19:26.710Z,0.90
2022-12-08T01:21:55.290Z,0.88
2022-12-08T01:24:23.744Z,0.83
2022-12-08T01:26:52.350Z,0.80
2022-12-08T01:29:20.901Z,0.79
2022-12-08T01:31:49.175Z,0.77
2022-12-08T01:34:17.482Z,0.74
2022-12-08T01:36:45.865Z,0.72
2022-12-08T01:39:16.545Z,0.70
2022-12-08T01:41:46.769Z,0.69
2022-12-08T01:44:15.307Z,0.70
2022-12-08T01:46:46.095Z,0.66
2022-12-08T01:49:30.956Z,0.64
2022-12-08T01:52:01.703Z,0.64
2022-12-08T01:54:34.463Z,0.67
2022-12-08T01:57:31.766Z,0.68
2022-12-08T02:00:06.747Z,0.66
2022-12-08T02:02:57.388Z,0.67
2022-12-08T02:05:34.903Z,0.68
2022-12-08T02:08:07.149Z,0.71
2022-12-08T02:10:39.512Z,0.75
2022-12-08T02:13:09.814Z,0.74
2022-12-08T02:15:55.764Z,0.75
2022-12-08T02:19:08.036Z,0.78
2022-12-08T02:21:49.671Z,0.83
2022-12-08T02:24:36.543Z,0.86
2022-12-08T02:27:26.174Z,0.85
2022-12-08T02:30:18.654Z,0.87
2022-12-08T02:33:02.225Z,0.88
2022-12-08T02:35:45.004Z,0.88
2022-12-08T02:38:41.325Z,0.89
2022-12-08T02:41:47.651Z,0.91
2022-12-08T02:44:27.790Z,0.90
2022-12-08T02:47:02.574Z,0.90
2022-12-08T02:49:35.511Z,0.90
2022-12-08T02:52:07.658Z,0.90
2022-12-08T02:54:37.146Z,0.92
2022-12-08T02:57:41.049Z,0.92
2022-12-08T03:00:14.116Z,0.93
2022-12-08T03:02:56.325Z,0.95
2022-12-08T03:05:24.952Z,0.95
2022-12-08T03:08:02.824Z,0.96
2022-12-08T03:10:57.907Z,0.94
2022-12-08T03:13:35.923Z,0.91
2022-12-08T03:16:08.297Z,0.92
2022-12-08T03:18:45.688Z,0.91
2022-12-08T03:21:17.884Z,0.81
2022-12-08T03:23:50.836Z,0.80
2022-12-08T03:26:29.085Z,0.81
2022-12-08T03:28:58.439Z,0.78
2022-12-08T03:31:31.719Z,0.78
2022-12-08T03:34:02.370Z,0.77
2022-12-08T03:36:30.909Z,0.75
2022-12-08T03:39:00.138Z,0.77
2022-12-08T03:41:28.553Z,0.79
2022-12-08T03:43:59.587Z,0.73
2022-12-08T03:48:57.872Z,0.76
2022-12-08T03:51:27.324Z,0.78
2022-12-08T03:53:56.308Z,0.78
2022-12-08T03:56:34.066Z,0.78
2022-12-08T03:59:03.188Z,0.80
2022-12-08T04:01:31.998Z,0.83
2022-12-08T04:04:00.352Z,0.84
2022-12-08T04:06:28.918Z,0.87
2022-12-08T04:08:57.380Z,0.87
2022-12-08T04:11:25.668Z,0.81
2022-12-08T04:13:54.038Z,0.75
2022-12-08T04:16:25.092Z,0.77
2022-12-08T04:18:54.352Z,0.75
2022-12-08T04:21:22.998Z,0.75
2022-12-08T04:23:56.117Z,0.79
2022-12-08T04:26:28.398Z,0.84
2022-12-08T04:28:57.935Z,0.87
2022-12-08T04:31:26.367Z,0.87
2022-12-08T04:33:54.813Z,0.86
2022-12-08T04:36:23.142Z,0.88
2022-12-08T04:38:51.376Z,0.91
2022-12-08T04:41:19.806Z,0.93
2022-12-08T04:43:48.177Z,0.96
2022-12-08T04:46:16.524Z,0.99
2022-12-08T04:48:44.974Z,1.01
2022-12-08T04:51:20.208Z,1.03
2022-12-08T04:53:48.814Z,1.01
2022-12-08T04:56:19.380Z,1.02
2022-12-08T04:58:47.634Z,1.02
2022-12-08T05:01:16.385Z,1.02
2022-12-08T05:03:44.751Z,1.01
2022-12-08T05:06:14.128Z,0.99
2022-12-08T05:08:43.373Z,0.94
2022-12-08T05:11:12.967Z,0.93
2022-12-08T05:13:41.528Z,0.92
2022-12-08T05:16:12.756Z,0.90
2022-12-08T05:18:42.538Z,0.86
2022-12-08T05:21:11.547Z,0.83
2022-12-08T05:23:39.811Z,0.79
2022-12-08T05:26:08.321Z,0.73
2022-12-08T05:28:41.703Z,0.70
2022-12-08T05:31:13.873Z,0.66
2022-12-08T05:33:42.660Z,0.63
2022-12-08T05:36:13.857Z,0.61
2022-12-08T05:38:43.251Z,0.59
2022-12-08T05:41:15.931Z,0.55
2022-12-08T05:43:44.893Z,0.55
2022-12-08T05:46:13.811Z,0.54
2022-12-08T05:48:42.207Z,0.51
2022-12-08T05:51:19.913Z,0.49
2022-12-08T05:53:49.796Z,0.48
2022-12-08T05:56:19.385Z,0.44
2022-12-08T05:58:48.046Z,0.42
2022-12-08T06:01:30.064Z,0.41
2022-12-08T06:04:01.123Z,0.43
2022-12-08T06:06:30.192Z,0.47
2022-12-08T06:08:58.824Z,0.49
2022-12-08T06:11:29.764Z,0.52
2022-12-08T06:13:58.954Z,0.57
2022-12-08T06:16:28.390Z,0.57
2022-12-08T06:18:57.915Z,0.56
2022-12-08T06:21:26.243Z,0.55
2022-12-08T06:23:55.558Z,0.58
2022-12-08T06:26:23.980Z,0.62
2022-12-08T06:28:52.383Z,0.58
2022-12-08T06:31:25.403Z,0.55
2022-12-08T06:33:54.959Z,0.55
2022-12-08T06:36:26.341Z,0.57
2022-12-08T06:38:55.020Z,0.59
2022-12-08T06:41:23.746Z,0.61
2022-12-08T06:43:52.373Z,0.59
2022-12-08T06:46:20.899Z,0.59
2022-12-08T06:48:50.782Z,0.62
2022-12-08T06:51:22.122Z,0.65
2022-12-08T06:53:50.748Z,0.63
2022-12-08T06:56:20.302Z,0.62
2022-12-08T06:58:52.550Z,0.64
2022-12-08T07:01:21.688Z,0.64
2022-12-08T07:03:50.237Z,0.63
2022-12-08T07:06:22.567Z,0.63
2022-12-08T07:08:51.171Z,0.60
2022-12-08T07:11:22.174Z,0.60
2022-12-08T07:13:51.305Z,0.59
2022-12-08T07:16:19.733Z,0.50
2022-12-08T07:18:48.540Z,0.48
2022-12-08T07:21:17.819Z,0.51
2022-12-08T07:23:50.169Z,0.51
2022-12-08T07:26:22.583Z,0.54
2022-12-08T07:28:50.846Z,0.57
2022-12-08T07:31:25.083Z,0.58
2022-12-08T07:33:54.123Z,0.48
2022-12-08T07:36:23.345Z,0.46
2022-12-08T07:38:53.768Z,0.43
2022-12-08T07:41:24.724Z,0.41
2022-12-08T07:43:56.355Z,0.38
2022-12-08T07:46:26.468Z,0.37
2022-12-08T07:48:55.473Z,0.37
2022-12-08T07:51:25.062Z,0.40
2022-12-08T07:53:54.853Z,0.42
2022-12-08T07:56:24.183Z,0.46
2022-12-08T07:58:52.817Z,0.46
2022-12-08T08:01:26.979Z,0.41
2022-12-08T08:03:57.461Z,0.36
2022-12-08T08:06:25.781Z,0.37
2022-12-08T08:08:54.457Z,0.37
2022-12-08T08:11:22.938Z,0.37
2022-12-08T08:13:51.868Z,0.42
2022-12-08T08:16:20.916Z,0.47
2022-12-08T08:18:50.977Z,0.47
2022-12-08T08:24:09.069Z,0.58
2022-12-08T08:26:38.136Z,0.60
2022-12-08T08:29:06.503Z,0.64
2022-12-08T08:31:34.828Z,0.70
2022-12-08T08:34:06.338Z,0.70
2022-12-08T08:36:36.004Z,0.67
2022-12-08T08:39:04.561Z,0.64
2022-12-08T08:41:33.064Z,0.65
2022-12-08T08:44:01.424Z,0.57
2022-12-08T08:46:29.766Z,0.52
2022-12-08T08:48:58.262Z,0.56
2022-12-08T08:51:26.547Z,0.60
2022-12-08T08:53:54.897Z,0.65
2022-12-08T08:56:23.280Z,0.71
2022-12-08T08:58:54.073Z,0.69
2022-12-08T09:01:28.042Z,0.60
2022-12-08T09:03:57.127Z,0.62
2022-12-08T09:06:26.157Z,0.68
2022-12-08T09:08:54.768Z,0.68
2022-12-08T09:11:23.668Z,0.66
2022-12-08T09:13:53.535Z,0.63
2022-12-08T09:16:22.561Z,0.60
2022-12-08T09:18:51.464Z,0.64
2022-12-08T09:21:26.043Z,0.62
2022-12-08T09:23:57.419Z,0.63
2022-12-08T09:26:27.576Z,0.60
2022-12-08T09:28:57.171Z,0.60
2022-12-08T09:31:25.887Z,0.54
2022-12-08T09:33:54.342Z,0.61
2022-12-08T09:36:23.120Z,0.63
2022-12-08T09:38:53.874Z,0.66
2022-12-08T09:41:37.974Z,0.71
2022-12-08T09:44:25.728Z,0.78
2022-12-08T09:46:56.235Z,0.78
2022-12-08T09:49:37.170Z,0.73
2022-12-08T09:52:14.214Z,0.71
2022-12-08T09:54:42.494Z,0.73
2022-12-08T09:57:17.145Z,0.78
2022-12-08T09:59:53.867Z,0.78
2022-12-08T10:02:25.365Z,0.77
2022-12-08T10:04:59.153Z,0.75
2022-12-08T10:07:38.879Z,0.75
2022-12-08T10:10:19.200Z,0.79
2022-12-08T10:13:15.767Z,0.77
2022-12-08T10:15:47.044Z,0.82
2022-12-08T10:18:30.044Z,0.84
2022-12-08T10:21:13.231Z,0.90
2022-12-08T10:23:46.260Z,0.93
2022-12-08T10:26:17.629Z,1.06
2022-12-08T10:28:46.289Z,1.22
2022-12-08T10:31:22.887Z,1.44
2022-12-08T10:34:10.493Z,1.53
2022-12-08T10:36:52.619Z,1.59
2022-12-08T10:39:43.958Z,1.59
2022-12-08T10:42:15.721Z,1.49
2022-12-08T10:45:02.704Z,1.46
2022-12-08T10:47:36.787Z,1.50
2022-12-08T10:50:31.599Z,1.53
2022-12-08T10:53:13.372Z,1.48
2022-12-08T10:55:47.695Z,1.54
2022-12-08T10:58:41.039Z,1.51
2022-12-08T11:01:26.517Z,1.42
2022-12-08T11:03:59.959Z,1.33
2022-12-08T11:06:37.647Z,1.37
2022-12-08T11:09:26.210Z,1.45
2022-12-08T11:12:07.344Z,1.48
2022-12-08T11:14:46.371Z,1.56
2022-12-08T11:17:26.360Z,1.62
2022-12-08T11:20:04.229Z,1.66
2022-12-08T11:22:37.639Z,1.65
2022-12-08T11:25:11.009Z,1.71
2022-12-08T11:27:43.674Z,1.81
2022-12-08T11:30:17.394Z,1.87
2022-12-08T11:33:13.981Z,1.82
2022-12-08T11:35:45.804Z,1.76
2022-12-08T11:38:21.857Z,1.77
2022-12-08T11:40:54.336Z,1.83
2022-12-08T11:43:34.937Z,1.86
2022-12-08T11:46:20.192Z,1.85
2022-12-08T11:48:51.496Z,1.85
2022-12-08T11:51:32.577Z,1.78
2022-12-08T11:54:03.709Z,1.69
2022-12-08T11:56:39.093Z,1.61
2022-12-08T11:59:16.690Z,1.56
2022-12-08T12:01:45.128Z,1.47
2022-12-08T12:04:53.875Z,1.42
2022-12-08T12:08:04.225Z,1.30
2022-12-08T12:10:58.561Z,1.20
2022-12-08T12:13:33.137Z,1.10
2022-12-08T12:16:07.483Z,1.03
2022-12-08T12:18:45.253Z,1.02
2022-12-08T12:21:26.245Z,1.06
2022-12-08T12:23:56.987Z,1.12
2022-12-08T12:26:29.628Z,1.10
2022-12-08T12:29:06.007Z,1.14
2022-12-08T12:31:37.297Z,1.17
2022-12-08T12:34:36.489Z,1.18
2022-12-08T12:37:12.618Z,1.27
2022-12-08T12:39:56.061Z,1.35
2022-12-08T12:42:44.355Z,1.42
2022-12-08T12:45:20.180Z,1.45
2022-12-08T12:47:56.696Z,1.47
2022-12-08T12:50:34.509Z,1.51
2022-12-08T12:53:19.004Z,1.57
2022-12-08T12:55:57.767Z,1.59
2022-12-08T12:58:32.021Z,1.54
2022-12-08T13:01:15.573Z,1.44
2022-12-08T13:04:05.910Z,1.42
2022-12-08T13:06:42.369Z,1.37
2022-12-08T13:09:24.268Z,1.37
2022-12-08T13:11:59.356Z,1.36
2022-12-08T13:14:33.227Z,1.35
2022-12-08T13:17:05.150Z,1.35
2022-12-08T13:19:38.828Z,1.35
2022-12-08T13:22:45.214Z,1.38
2022-12-08T13:25:48.125Z,1.39
2022-12-08T13:28:16.657Z,1.41
2022-12-08T13:30:48.968Z,1.45
2022-12-08T13:33:23.867Z,1.48
2022-12-08T13:36:02.481Z,1.50
2022-12-08T13:38:34.242Z,1.52
2022-12-08T13:41:08.148Z,1.53
2022-12-08T13:44:02.506Z,1.54
2022-12-08T13:47:16.810Z,1.52
2022-12-08T13:58:40.433Z,1.59
2022-12-08T14:01:23.699Z,1.58
2022-12-08T14:06:57.135Z,1.59
2022-12-08T14:09:29.172Z,1.55
2022-12-08T14:12:18.331Z,1.51
2022-12-08T14:15:05.540Z,1.48
2022-12-08T14:17:34.179Z,1.48
2022-12-08T14:20:19.793Z,1.48
2022-12-08T14:22:49.076Z,1.46
2022-12-08T14:25:18.482Z,1.44
2022-12-08T14:27:48.054Z,1.42
2022-12-08T14:30:28.200Z,1.38
2022-12-08T14:32:59.012Z,1.26
2022-12-08T14:35:30.306Z,1.20
2022-12-08T14:38:01.610Z,1.19
2022-12-08T14:40:38.994Z,1.22
2022-12-08T14:43:10.364Z,1.26
2022-12-08T14:45:41.839Z,1.28
2022-12-08T14:48:31.653Z,1.29
2022-12-08T14:51:04.143Z,1.26
2022-12-08T14:53:52.994Z,1.26
2022-12-08T14:56:38.730Z,1.26
2022-12-08T14:59:19.164Z,1.18
2022-12-08T15:01:50.146Z,1.14
2022-12-08T15:04:23.318Z,0.99
2022-12-08T15:07:14.257Z,0.90
2022-12-08T15:09:45.424Z,0.82
2022-12-08T15:12:13.605Z,0.84
2022-12-08T15:14:54.202Z,0.88
2022-12-08T15:17:42.291Z,0.87
2022-12-08T15:20:30.156Z,0.88
2022-12-08T15:23:03.914Z,0.90
2022-12-08T15:25:36.298Z,0.89
2022-12-08T15:28:04.997Z,0.86
2022-12-08T15:30:34.484Z,0.80
2022-12-08T15:33:02.843Z,0.76
2022-12-08T15:35:34.658Z,0.80
2022-12-08T15:38:06.642Z,0.85
2022-12-08T15:40:34.991Z,0.89
2022-12-08T15:43:03.279Z,0.94
2022-12-08T15:45:32.747Z,0.98
2022-12-08T15:48:01.474Z,1.02
2022-12-08T15:50:29.705Z,1.06
2022-12-08T15:52:58.316Z,1.09
2022-12-08T15:55:27.143Z,1.12
2022-12-08T16:00:53.828Z,1.16
2022-12-08T16:04:19.848Z,1.18
2022-12-08T16:09:21.133Z,1.19
2022-12-08T16:12:10.064Z,1.20
2022-12-08T16:17:28.775Z,1.25
2022-12-08T16:19:57.348Z,1.27
2022-12-08T16:25:19.882Z,1.32
2022-12-08T16:28:03.027Z,1.33
2022-12-08T16:30:37.021Z,1.35
2022-12-08T16:33:05.525Z,1.36
2022-12-08T16:35:33.990Z,1.37
2022-12-08T16:38:05.097Z,1.39
2022-12-08T16:40:53.850Z,1.40
2022-12-08T16:43:22.243Z,1.42
2022-12-08T16:45:50.707Z,1.43
2022-12-08T16:48:20.648Z,1.47
2022-12-08T16:50:49.119Z,1.48
2022-12-08T16:53:17.394Z,1.50
2022-12-08T16:55:50.299Z,1.51
2022-12-08T16:58:18.697Z,1.53
2022-12-08T17:00:47.481Z,1.53
2022-12-08T17:03:16.815Z,1.54
2022-12-08T17:05:45.277Z,1.55
2022-12-08T17:08:14.137Z,1.57
2022-12-08T17:10:42.961Z,1.57
2022-12-08T17:13:13.058Z,1.58
2022-12-08T17:15:41.364Z,1.59
2022-12-08T17:18:09.714Z,1.60
2022-12-08T17:20:40.441Z,1.62
2022-12-08T17:23:08.732Z,1.63
2022-12-08T17:25:37.431Z,1.63
2022-12-08T17:28:06.135Z,1.63
2022-12-08T17:30:34.466Z,1.64
2022-12-08T17:33:02.838Z,1.64
2022-12-08T17:35:31.375Z,1.65
2022-12-08T17:37:59.817Z,1.66
2022-12-08T17:40:28.504Z,1.68
2022-12-08T17:42:57.016Z,1.68
2022-12-08T17:45:25.503Z,1.69
2022-12-08T17:47:53.748Z,1.68
2022-12-08T17:50:22.104Z,1.68
2022-12-08T17:52:51.293Z,1.69
2022-12-08T17:55:19.708Z,1.69
2022-12-08T17:57:48.016Z,1.70
2022-12-08T18:00:16.582Z,1.71
2022-12-08T18:02:44.928Z,1.72
2022-12-08T18:05:16.319Z,1.72
2022-12-08T18:07:44.702Z,1.71
2022-12-08T18:10:13.383Z,1.71
2022-12-08T18:12:42.116Z,1.71
2022-12-08T18:15:16.078Z,1.71
2022-12-08T18:17:45.196Z,1.70
2022-12-08T18:20:14.106Z,1.71
2022-12-08T18:22:42.822Z,1.71
2022-12-08T18:25:12.196Z,1.73
2022-12-08T18:27:43.215Z,1.74
2022-12-08T18:30:17.318Z,1.74
2022-12-08T18:32:46.076Z,1.74
2022-12-08T18:35:14.812Z,1.74
2022-12-08T18:37:43.206Z,1.73
2022-12-08T18:40:12.425Z,1.71
2022-12-08T18:42:40.880Z,1.70
2022-12-08T18:45:09.673Z,1.69
2022-12-08T18:47:40.390Z,1.67
2022-12-08T18:50:11.654Z,1.67
2022-12-08T18:52:40.491Z,1.68
2022-12-08T18:55:09.732Z,1.67
2022-12-08T18:57:43.358Z,1.65
2022-12-08T19:00:15.303Z,1.64
2022-12-08T19:02:43.704Z,1.64
2022-12-08T19:05:13.801Z,1.63
2022-12-08T19:07:43.038Z,1.62
2022-12-08T19:10:11.911Z,1.62
2022-12-08T19:12:40.446Z,1.63
2022-12-08T19:15:09.620Z,1.64
2022-12-08T19:17:38.010Z,1.66
2022-12-08T19:20:07.602Z,1.66
2022-12-08T19:22:36.257Z,1.67
2022-12-08T19:25:05.522Z,1.65
2022-12-08T19:27:34.299Z,1.63
2022-12-08T19:30:03.470Z,1.61
2022-12-08T19:32:32.416Z,1.58
2022-12-08T19:35:00.991Z,1.55
2022-12-08T19:37:30.415Z,1.53
2022-12-08T19:40:18.218Z,1.47
2022-12-08T19:43:05.607Z,1.43
2022-12-08T19:45:35.789Z,1.40
2022-12-08T19:48:04.961Z,1.37
2022-12-08T19:50:36.474Z,1.34
2022-12-08T19:53:08.312Z,1.28
2022-12-08T19:55:38.100Z,1.22
2022-12-08T19:58:07.480Z,1.17
2022-12-08T20:00:37.188Z,1.13
2022-12-08T20:03:06.591Z,1.09
2022-12-08T20:05:37.099Z,1.06
2022-12-08T20:08:05.780Z,1.00
2022-12-08T20:10:40.539Z,0.91
2022-12-08T20:13:29.205Z,0.85
2022-12-08T20:15:58.418Z,0.78
2022-12-08T20:18:28.826Z,0.70
2022-12-08T20:20:57.264Z,0.65
2022-12-08T20:23:25.977Z,0.60
2022-12-08T20:25:54.289Z,0.53
2022-12-08T20:28:22.959Z,0.45
2022-12-08T20:30:51.865Z,0.37
2022-12-08T20:33:20.717Z,0.31
2022-12-08T20:36:01.639Z,0.24
2022-12-08T20:38:30.581Z,0.18
2022-12-08T20:40:59.642Z,0.12
2022-12-08T20:43:28.492Z,0.07
2022-12-08T20:45:57.200Z,0.04
2022-12-08T20:48:25.915Z,-0.02
2022-12-08T20:50:55.356Z,-0.07
2022-12-08T20:53:24.024Z,-0.11
2022-12-08T20:55:53.301Z,-0.12
2022-12-08T20:58:22.155Z,-0.12
2022-12-08T21:00:51.204Z,-0.12
2022-12-08T21:03:19.764Z,-0.10
2022-12-08T21:05:51.487Z,-0.08
2022-12-08T21:08:20.532Z,-0.05
2022-12-08T21:10:57.012Z,-0.02
2022-12-08T21:13:25.670Z,0.01
2022-12-08T21:15:54.505Z,0.02
2022-12-08T21:18:24.186Z,0.01
2022-12-08T21:20:53.287Z,0.03
2022-12-08T21:23:21.759Z,0.04
2022-12-08T21:25:50.365Z,0.06
2022-12-08T21:28:19.273Z,0.05
2022-12-08T21:30:47.799Z,0.05
2022-12-08T21:33:17.863Z,0.06
2022-12-08T21:35:46.559Z,0.06
2022-12-08T21:38:15.176Z,0.05
2022-12-08T21:40:43.599Z,0.02
2022-12-08T21:43:12.159Z,-0.01
2022-12-08T21:45:40.585Z,-0.03
2022-12-08T21:48:11.723Z,-0.07
2022-12-08T21:50:40.801Z,-0.11
2022-12-08T21:53:09.458Z,-0.12
2022-12-08T21:55:39.150Z,-0.16
2022-12-08T21:58:07.564Z,-0.20
2022-12-08T22:00:36.160Z,-0.23
2022-12-08T22:03:05.492Z,-0.27
2022-12-08T22:05:35.826Z,-0.30
2022-12-08T22:08:04.591Z,-0.36
2022-12-08T22:10:33.626Z,-0.39
2022-12-08T22:13:02.604Z,-0.44
2022-12-08T22:15:31.087Z,-0.49
2022-12-08T22:17:59.774Z,-0.54
2022-12-08T22:20:28.234Z,-0.56
2022-12-08T22:22:56.747Z,-0.59
2022-12-08T22:25:25.299Z,-0.64
2022-12-08T22:27:53.943Z,-0.68
2022-12-08T22:30:22.745Z,-0.71
2022-12-08T22:32:51.074Z,-0.76
2022-12-08T22:35:19.442Z,-0.80
2022-12-08T22:37:52.229Z,-0.83
2022-12-08T22:40:20.688Z,-0.88
2022-12-08T22:42:49.137Z,-0.92
2022-12-08T22:45:17.575Z,-0.96
2022-12-08T22:47:46.053Z,-0.98
2022-12-08T22:50:14.537Z,-1.05
2022-12-08T22:52:43.083Z,-1.09
2022-12-08T22:55:11.483Z,-1.15
2022-12-08T22:57:39.888Z,-1.20
2022-12-08T23:00:11.947Z,-1.23
2022-12-08T23:02:40.607Z,-1.26
2022-12-08T23:05:09.854Z,-1.29
2022-12-08T23:07:39.660Z,-1.33
2022-12-08T23:10:09.720Z,-1.36
2022-12-08T23:12:38.461Z,-1.38
2022-12-08T23:15:07.332Z,-1.40
2022-12-08T23:17:35.995Z,-1.44
2022-12-08T23:20:05.453Z,-1.47
2022-12-08T23:22:52.021Z,-1.50
2022-12-08T23:25:42.160Z,-1.53
2022-12-08T23:28:25.810Z,-1.58
2022-12-08T23:30:53.992Z,-1.60
2022-12-08T23:33:22.204Z,-1.62
2022-12-08T23:35:57.710Z,-1.62
2022-12-08T23:38:26.413Z,-1.65
2022-12-08T23:40:54.632Z,-1.67
2022-12-08T23:43:23.422Z,-1.67
2022-12-08T23:45:51.729Z,-1.68
2022-12-08T23:48:20.119Z,-1.69
2022-12-08T23:50:48.987Z,-1.71
2022-12-08T23:53:17.527Z,-1.73
2022-12-08T23:55:46.035Z,-1.75
2022-12-08T23:58:14.342Z,-1.77
